Hamilton Municipal Airport


Codes: KMNZ/
Name: Hamilton Municipal Airport
City: Hamilton
Country: United States
Elevation: 1299 ft.

Photos at Hamilton Municipal Airport


   Photos courtesy of SpottingLog. You can add your own sightings and photos by signing up for a free trial today.



No photos found.

Weather at Hamilton Municipal Airport


Time (UTC)DescriptionTempratureWindCloud coverageVisibilityPressureHumidity
18-Apr-2024 00:00Scattered Clouds27°C11 mph, S33%10000m1012hPa66%
18-Apr-2024 03:00Light Rain25°C11 mph, SE67%10000m1012hPa81%
18-Apr-2024 06:00Overcast Clouds22°C13 mph, S100%10000m1012hPa86%
18-Apr-2024 09:00Overcast Clouds20°C13 mph, S100%10000m1011hPa94%
18-Apr-2024 12:00Overcast Clouds20°C13 mph, S91%10000m1012hPa96%
18-Apr-2024 15:00Scattered Clouds25°C16 mph, SW36%10000m1012hPa75%
18-Apr-2024 18:00Scattered Clouds30°C13 mph, SW39%10000m1012hPa53%
18-Apr-2024 21:00Light Rain33°C9 mph, S16%10000m1009hPa40%
19-Apr-2024 00:00Heavy Intensity Rain19°C22 mph, E55%371m1012hPa96%
19-Apr-2024 03:00Moderate Rain19°C2 mph, NW100%10000m1015hPa88%
19-Apr-2024 06:00Overcast Clouds16°C11 mph, N100%10000m1017hPa89%
19-Apr-2024 09:00Broken Clouds14°C11 mph, NE78%10000m1016hPa91%
19-Apr-2024 12:00Broken Clouds13°C11 mph, N55%10000m1018hPa92%
19-Apr-2024 15:00Overcast Clouds15°C11 mph, NE88%10000m1020hPa79%
19-Apr-2024 18:00Overcast Clouds19°C11 mph, NE90%10000m1018hPa70%
19-Apr-2024 21:00Overcast Clouds22°C9 mph, NE99%10000m1016hPa66%
20-Apr-2024 00:00Overcast Clouds21°C9 mph, E99%10000m1016hPa75%
20-Apr-2024 03:00Overcast Clouds19°C9 mph, E100%10000m1016hPa79%
20-Apr-2024 06:00Light Rain18°C7 mph, NE100%10000m1016hPa93%
20-Apr-2024 09:00Light Rain17°C11 mph, SE100%10000m1015hPa98%
20-Apr-2024 12:00Light Rain17°C13 mph, NE100%599m1016hPa98%
20-Apr-2024 15:00Light Rain16°C13 mph, NE100%382m1018hPa97%
20-Apr-2024 18:00Light Rain17°C13 mph, NE100%420m1018hPa95%
20-Apr-2024 21:00Overcast Clouds16°C16 mph, N100%0m1017hPa95%
21-Apr-2024 00:00Heavy Intensity Rain14°C16 mph, NE100%449m1014hPa98%
21-Apr-2024 03:00Heavy Intensity Rain14°C16 mph, E100%243m1016hPa99%
21-Apr-2024 06:00Moderate Rain13°C11 mph, NE100%164m1019hPa98%
21-Apr-2024 09:00Light Rain12°C9 mph, NE100%145m1019hPa98%
21-Apr-2024 12:00Light Rain11°C13 mph, N100%0m1021hPa97%
21-Apr-2024 15:00Light Rain11°C13 mph, N100%10000m1023hPa96%
21-Apr-2024 18:00Overcast Clouds12°C13 mph, NE100%10000m1023hPa85%
21-Apr-2024 21:00Overcast Clouds15°C13 mph, NE94%10000m1021hPa74%
22-Apr-2024 00:00Overcast Clouds14°C11 mph, NE95%10000m1020hPa77%
22-Apr-2024 03:00Overcast Clouds13°C7 mph, NE100%10000m1022hPa80%
22-Apr-2024 06:00Overcast Clouds13°C4 mph, NE100%10000m1022hPa86%
22-Apr-2024 09:00Overcast Clouds12°C4 mph, E100%10000m1021hPa90%
22-Apr-2024 12:00Overcast Clouds12°C4 mph, SE100%10000m1021hPa91%
22-Apr-2024 15:00Overcast Clouds13°C7 mph, SE100%10000m1021hPa83%
22-Apr-2024 18:00Overcast Clouds18°C9 mph, S95%10000m1019hPa68%
22-Apr-2024 21:00Overcast Clouds19°C9 mph, S99%10000m1016hPa64%